createdAt,value
2023-05-18T00:00:41.903Z,2.7
2023-05-18T00:03:44.000Z,2.9
2023-05-18T00:06:45.842Z,2.6
2023-05-18T00:09:47.836Z,2.7
2023-05-18T00:12:49.734Z,2.3
2023-05-18T00:15:51.728Z,2.4
2023-05-18T00:18:53.696Z,2.7
2023-05-18T00:21:55.616Z,2.7
2023-05-18T00:24:57.621Z,2.6
2023-05-18T00:27:59.554Z,2.3
2023-05-18T00:31:01.536Z,2.5
2023-05-18T00:34:03.502Z,2.3
2023-05-18T00:37:05.490Z,2.2
2023-05-18T00:40:07.458Z,2.1
2023-05-18T00:43:09.421Z,2.6
2023-05-18T00:46:11.409Z,2.4
2023-05-18T00:49:13.338Z,2.5
2023-05-18T00:52:15.304Z,2.4
2023-05-18T00:55:17.256Z,2.2
2023-05-18T00:58:19.268Z,2.2
2023-05-18T01:01:21.248Z,2.6
2023-05-18T01:04:23.176Z,2.6
2023-05-18T01:07:25.145Z,1.9
2023-05-18T01:10:27.108Z,2.1
2023-05-18T01:13:29.076Z,2.3
2023-05-18T01:16:31.093Z,2.4
2023-05-18T01:19:33.010Z,2
2023-05-18T01:22:34.983Z,2.8
2023-05-18T01:25:36.972Z,2.5
2023-05-18T01:28:38.913Z,2.2
2023-05-18T01:31:40.871Z,1.9
2023-05-18T01:34:42.848Z,2.2
2023-05-18T01:37:44.842Z,2.3
2023-05-18T01:40:46.804Z,2
2023-05-18T01:43:48.766Z,2.5
2023-05-18T01:46:50.800Z,2.3
2023-05-18T01:49:52.687Z,2.5
2023-05-18T01:52:54.637Z,2.1
2023-05-18T01:55:56.597Z,2.8
2023-05-18T01:58:58.588Z,2.5
2023-05-18T02:02:00.656Z,2.8
2023-05-18T02:05:02.532Z,3
2023-05-18T02:08:04.492Z,2.2
2023-05-18T02:11:06.463Z,2.6
2023-05-18T02:14:08.432Z,2.5
2023-05-18T02:17:10.364Z,2.5
2023-05-18T02:20:12.341Z,2.7
2023-05-18T02:23:14.289Z,2.5
2023-05-18T02:26:16.266Z,2.7
2023-05-18T02:29:18.267Z,2.3
2023-05-18T02:32:20.217Z,2.5
2023-05-18T02:35:22.201Z,2.6
2023-05-18T02:38:24.145Z,2.4
2023-05-18T02:41:26.129Z,2.3
2023-05-18T02:44:28.109Z,2.5
2023-05-18T02:47:30.073Z,2.3
2023-05-18T02:50:32.019Z,2.5
2023-05-18T02:53:33.999Z,2.5
2023-05-18T02:56:35.966Z,2.8
2023-05-18T02:59:38.024Z,3
2023-05-18T03:02:40.200Z,2.5
2023-05-18T03:05:41.923Z,2.9
2023-05-18T03:08:43.888Z,2.7
2023-05-18T03:11:45.846Z,2.3
2023-05-18T03:14:47.774Z,2.8
2023-05-18T03:17:49.764Z,2.4
2023-05-18T03:20:51.696Z,2.1
2023-05-18T03:23:53.657Z,2.4
2023-05-18T03:26:55.626Z,2.7
2023-05-18T03:29:57.594Z,2.4
2023-05-18T03:32:59.686Z,2.5
2023-05-18T03:36:01.558Z,2.1
2023-05-18T03:39:03.505Z,2.7
2023-05-18T03:42:05.462Z,2.8
2023-05-18T03:45:07.431Z,2.6
2023-05-18T03:48:09.452Z,2.4
2023-05-18T03:51:11.375Z,2.5
2023-05-18T03:54:13.362Z,2
2023-05-18T03:57:15.303Z,2.4
2023-05-18T04:00:17.276Z,2.3
2023-05-18T04:03:19.290Z,2.5
2023-05-18T04:06:21.225Z,2.2
2023-05-18T04:09:23.190Z,3
2023-05-18T04:12:25.190Z,2.5
2023-05-18T04:15:27.160Z,2
2023-05-18T04:18:29.183Z,2.2
2023-05-18T04:21:31.089Z,2.6
2023-05-18T04:24:33.043Z,2.5
2023-05-18T04:27:35.002Z,2.8
2023-05-18T04:30:36.946Z,2.1
2023-05-18T04:33:38.898Z,2.6
2023-05-18T04:36:40.886Z,2.4
2023-05-18T04:39:42.855Z,2.2
2023-05-18T04:42:44.844Z,2.1
2023-05-18T04:45:46.835Z,2.2
2023-05-18T04:48:48.826Z,2.3
2023-05-18T04:51:50.794Z,2.4
2023-05-18T04:54:52.756Z,2.3
2023-05-18T04:57:55.060Z,1.9
2023-05-18T05:00:56.680Z,2.4
2023-05-18T05:03:59.760Z,2.5
2023-05-18T05:07:00.597Z,2.1
2023-05-18T05:10:02.584Z,2.7
2023-05-18T05:13:04.551Z,2.1
2023-05-18T05:16:06.581Z,2.3
2023-05-18T05:19:08.552Z,2.4
2023-05-18T05:22:10.525Z,2.1
2023-05-18T05:25:12.456Z,2
2023-05-18T05:28:14.439Z,2.5
2023-05-18T05:31:16.402Z,2.5
2023-05-18T05:34:18.339Z,2
2023-05-18T05:37:20.277Z,2.4
2023-05-18T05:40:22.283Z,2
2023-05-18T05:43:24.228Z,2.2
2023-05-18T05:46:31.236Z,2.3
2023-05-18T05:49:28.185Z,2.1
2023-05-18T05:52:30.124Z,1.8
2023-05-18T05:55:32.365Z,2.3
2023-05-18T05:58:34.051Z,2.2
2023-05-18T06:01:36.042Z,2
2023-05-18T06:04:38.028Z,1.9
2023-05-18T06:07:39.968Z,2.2
2023-05-18T06:10:41.927Z,2.1
2023-05-18T06:13:43.900Z,2.2
2023-05-18T06:16:45.891Z,2.8
2023-05-18T06:19:47.824Z,2.5
2023-05-18T06:22:49.841Z,2.4
2023-05-18T06:25:51.809Z,2.1
2023-05-18T06:28:53.785Z,2.1
2023-05-18T06:31:55.777Z,2.2
2023-05-18T06:34:57.725Z,2.3
2023-05-18T06:37:59.702Z,2.2
2023-05-18T06:41:01.659Z,2.5
2023-05-18T06:44:03.698Z,2.2
2023-05-18T06:47:05.644Z,2.1
2023-05-18T06:50:07.592Z,2.1
2023-05-18T06:53:09.573Z,1.9
2023-05-18T06:56:11.542Z,2.6
2023-05-18T06:59:13.493Z,2.3
2023-05-18T07:02:15.459Z,1.9
2023-05-18T07:05:17.418Z,2.4
2023-05-18T07:08:19.426Z,2
2023-05-18T07:11:21.342Z,1.8
2023-05-18T07:14:23.317Z,1.6
2023-05-18T07:17:25.271Z,2.4
2023-05-18T07:20:27.261Z,2.2
2023-05-18T07:23:29.188Z,2.3
2023-05-18T07:26:31.158Z,2.1
2023-05-18T07:29:33.128Z,1.9
2023-05-18T07:32:35.171Z,2.3
2023-05-18T07:35:37.054Z,2.3
2023-05-18T07:38:39.014Z,2.4
2023-05-18T07:41:40.979Z,2.1
2023-05-18T07:44:42.972Z,2.6
2023-05-18T07:47:44.954Z,1.9
2023-05-18T07:50:46.890Z,1.7
2023-05-18T07:53:48.848Z,1.9
2023-05-18T07:56:50.804Z,2.2
2023-05-18T07:59:52.768Z,2
2023-05-18T08:02:55.090Z,1.9
2023-05-18T08:05:56.700Z,1.9
2023-05-18T08:08:58.681Z,2.4
2023-05-18T08:12:00.634Z,2.1
2023-05-18T08:15:02.622Z,1.8
2023-05-18T08:18:04.566Z,1.8
2023-05-18T08:21:06.572Z,2.1
2023-05-18T08:24:08.516Z,2.5
2023-05-18T08:27:10.496Z,2
2023-05-18T08:30:12.463Z,2.2
2023-05-18T08:33:14.458Z,2.3
2023-05-18T08:36:16.368Z,1.8
2023-05-18T08:39:18.332Z,2.1
2023-05-18T08:42:20.304Z,1.9
2023-05-18T08:45:22.275Z,2
2023-05-18T08:48:26.454Z,2
2023-05-18T08:51:26.198Z,1.6
2023-05-18T08:54:28.153Z,1.9
2023-05-18T08:57:30.110Z,2
2023-05-18T09:00:32.254Z,1.8
2023-05-18T09:03:34.038Z,1.8
2023-05-18T09:06:36.028Z,1.5
2023-05-18T09:09:37.949Z,1.5
2023-05-18T09:12:39.910Z,2
2023-05-18T09:15:41.906Z,1.8
2023-05-18T09:18:43.884Z,1.7
2023-05-18T09:21:45.840Z,1.7
2023-05-18T09:24:47.809Z,1.6
2023-05-18T09:27:49.790Z,1.8
2023-05-18T09:30:51.764Z,1.8
2023-05-18T09:33:53.752Z,2.2
2023-05-18T09:36:55.707Z,1.6
2023-05-18T09:39:57.652Z,1.8
2023-05-18T09:42:59.646Z,2.2
2023-05-18T09:46:01.605Z,1.8
2023-05-18T09:49:03.616Z,1.6
2023-05-18T09:52:05.529Z,1.8
2023-05-18T09:55:07.505Z,2.2
2023-05-18T09:58:09.480Z,1.6
2023-05-18T10:01:11.885Z,1.8
2023-05-18T10:04:13.482Z,1.9
2023-05-18T10:07:15.383Z,1.8
2023-05-18T10:10:17.338Z,1.9
2023-05-18T10:13:19.295Z,1.9
2023-05-18T10:16:21.318Z,1.9
2023-05-18T10:19:23.264Z,1.9
2023-05-18T10:22:25.180Z,1.5
2023-05-18T10:25:27.140Z,1.8
2023-05-18T10:28:29.120Z,1.6
2023-05-18T10:31:31.117Z,1.7
2023-05-18T10:34:33.058Z,1.9
2023-05-18T10:37:34.989Z,1.6
2023-05-18T10:40:36.976Z,1.8
2023-05-18T10:43:38.969Z,1.4
2023-05-18T10:46:41.034Z,1.9
2023-05-18T10:49:42.908Z,1.7
2023-05-18T10:52:44.868Z,1.9
2023-05-18T10:55:46.878Z,1.5
2023-05-18T10:58:48.854Z,1.6
2023-05-18T11:01:50.871Z,2.2
2023-05-18T11:04:54.077Z,1.5
2023-05-18T11:07:54.794Z,1.8
2023-05-18T11:10:56.758Z,2.5
2023-05-18T11:13:58.731Z,2.1
2023-05-18T11:17:00.692Z,2
2023-05-18T11:20:02.665Z,1.9
2023-05-18T11:23:04.618Z,1.9
2023-05-18T11:26:06.820Z,2.2
2023-05-18T11:29:08.571Z,2.3
2023-05-18T11:32:10.530Z,1.7
2023-05-18T11:35:12.493Z,2.6
2023-05-18T11:38:14.476Z,1.9
2023-05-18T11:41:16.455Z,1.9
2023-05-18T11:44:18.430Z,1.6
2023-05-18T11:47:20.388Z,2
2023-05-18T11:50:22.350Z,2.2
2023-05-18T11:53:24.320Z,2.1
2023-05-18T11:56:26.265Z,1.9
2023-05-18T11:59:28.286Z,2
2023-05-18T12:02:30.266Z,2.1
2023-05-18T12:05:32.162Z,2.6
2023-05-18T12:08:34.154Z,2.1
2023-05-18T12:11:36.162Z,1.6
2023-05-18T12:14:38.113Z,1.7
2023-05-18T12:17:40.088Z,1.7
2023-05-18T12:20:42.204Z,2
2023-05-18T12:23:44.016Z,2
2023-05-18T12:26:45.981Z,1.7
2023-05-18T12:29:47.976Z,1.9
2023-05-18T12:32:49.922Z,1.9
2023-05-18T12:35:51.858Z,2
2023-05-18T12:38:53.815Z,2.1
2023-05-18T12:41:55.764Z,2.1
2023-05-18T12:44:57.724Z,1.9
2023-05-18T12:47:59.830Z,2.1
2023-05-18T12:51:01.671Z,2
2023-05-18T12:54:03.680Z,1.9
2023-05-18T12:57:05.597Z,1.6
2023-05-18T13:00:07.557Z,1.5
2023-05-18T13:03:11.823Z,1.9
2023-05-18T13:06:11.493Z,1.8
2023-05-18T13:09:13.474Z,1.5
2023-05-18T13:12:15.449Z,1.5
2023-05-18T13:15:17.417Z,1.8
2023-05-18T13:18:19.374Z,1.4
2023-05-18T13:21:21.340Z,1.7
2023-05-18T13:24:23.298Z,1.6
2023-05-18T13:27:25.275Z,2
2023-05-18T13:30:27.247Z,1.8
2023-05-18T13:33:29.216Z,1.9
2023-05-18T13:36:31.193Z,1.9
2023-05-18T13:39:33.142Z,1.5
2023-05-18T13:42:35.137Z,1.6
2023-05-18T13:45:37.289Z,1.7
2023-05-18T13:48:39.092Z,1.7
2023-05-18T13:51:41.056Z,1.8
2023-05-18T13:54:42.986Z,1.5
2023-05-18T13:57:44.948Z,1.7
2023-05-18T14:00:46.971Z,2.3
2023-05-18T14:03:48.928Z,2.5
2023-05-18T14:06:50.832Z,2.3
2023-05-18T14:09:52.865Z,1.9
2023-05-18T14:12:54.792Z,2
2023-05-18T14:15:56.741Z,1.9
2023-05-18T14:18:58.767Z,1.6
2023-05-18T14:22:00.671Z,2
2023-05-18T14:25:02.668Z,2.9
2023-05-18T14:28:04.614Z,2.2
2023-05-18T14:31:06.688Z,2.1
2023-05-18T14:34:08.635Z,2.2
2023-05-18T14:37:10.575Z,2.4
2023-05-18T14:40:12.565Z,1.7
2023-05-18T14:43:14.522Z,1.8
2023-05-18T14:46:16.556Z,2.2
2023-05-18T14:49:18.494Z,2.2
2023-05-18T14:52:20.470Z,1.9
2023-05-18T14:55:22.434Z,1.7
2023-05-18T14:58:24.374Z,1.5
2023-05-18T15:01:26.355Z,1.8
2023-05-18T15:04:28.328Z,1.7
2023-05-18T15:07:30.254Z,1.6
2023-05-18T15:10:32.400Z,1.4
2023-05-18T15:13:34.216Z,1.5
2023-05-18T15:16:36.282Z,1.2
2023-05-18T15:19:38.139Z,2
2023-05-18T15:22:40.108Z,1.5
2023-05-18T15:25:42.302Z,1.5
2023-05-18T15:28:44.044Z,1.8
2023-05-18T15:31:46.112Z,1.6
2023-05-18T15:34:48.002Z,1.7
2023-05-18T15:37:49.949Z,1.9
2023-05-18T15:40:52.005Z,2
2023-05-18T15:43:53.981Z,1.7
2023-05-18T15:46:55.990Z,2.2
2023-05-18T15:49:58.284Z,2
2023-05-18T15:52:59.935Z,2.8
2023-05-18T15:56:01.901Z,2.5
2023-05-18T15:59:04.016Z,1.7
2023-05-18T16:02:05.839Z,1.7
2023-05-18T16:05:07.819Z,1.3
2023-05-18T16:08:09.766Z,2.1
2023-05-18T16:11:11.749Z,2.1
2023-05-18T16:14:13.712Z,1.7
2023-05-18T16:17:15.784Z,1.8
2023-05-18T16:20:17.624Z,1.8
2023-05-18T16:23:19.585Z,1.8
2023-05-18T16:26:21.560Z,1.8
2023-05-18T16:29:23.506Z,1.8
2023-05-18T16:32:25.503Z,1.6
2023-05-18T16:35:27.447Z,2
2023-05-18T16:38:29.517Z,1.9
2023-05-18T16:41:31.396Z,1.4
2023-05-18T16:44:33.346Z,1.7
2023-05-18T16:47:35.328Z,2.1
2023-05-18T16:50:37.254Z,2
2023-05-18T16:53:39.316Z,1.9
2023-05-18T16:56:41.217Z,2
2023-05-18T16:59:43.162Z,1.5
2023-05-18T17:02:45.316Z,1.7
2023-05-18T17:05:47.086Z,2
2023-05-18T17:08:49.050Z,1.9
2023-05-18T17:11:51.014Z,1.9
2023-05-18T17:14:52.985Z,2.2
2023-05-18T17:17:55.019Z,1.8
2023-05-18T17:20:56.916Z,2
2023-05-18T17:23:58.880Z,1.9
2023-05-18T17:27:00.835Z,1.5
2023-05-18T17:30:02.807Z,1.8
2023-05-18T17:33:04.777Z,1.9
2023-05-18T17:36:06.773Z,2.1
2023-05-18T17:39:08.723Z,1.9
2023-05-18T17:42:10.668Z,2.3
2023-05-18T17:45:12.934Z,2.3
2023-05-18T17:48:14.707Z,2.4
2023-05-18T17:51:16.583Z,2.2
2023-05-18T17:54:18.535Z,2.2
2023-05-18T17:57:20.503Z,1.9
2023-05-18T18:00:22.472Z,2
2023-05-18T18:03:24.440Z,1.6
2023-05-18T18:06:26.408Z,1.6
2023-05-18T18:09:28.352Z,2
2023-05-18T18:12:30.330Z,1.7
2023-05-18T18:15:32.302Z,2
2023-05-18T18:18:34.300Z,1.6
2023-05-18T18:21:36.209Z,1.6
2023-05-18T18:24:38.225Z,1.7
2023-05-18T18:27:40.194Z,1.7
2023-05-18T18:30:42.167Z,1.5
2023-05-18T18:33:44.121Z,1.9
2023-05-18T18:36:46.088Z,1.4
2023-05-18T18:39:48.076Z,1.6
2023-05-18T18:42:50.036Z,1.8
2023-05-18T18:45:51.985Z,2
2023-05-18T18:48:53.947Z,1.7
2023-05-18T18:51:55.967Z,1.8
2023-05-18T18:54:57.924Z,1.5
2023-05-18T18:57:59.893Z,1.7
2023-05-18T19:01:01.879Z,1.4
2023-05-18T19:04:03.862Z,1.5
2023-05-18T19:07:05.813Z,1.9
2023-05-18T19:10:07.781Z,1.5
2023-05-18T19:13:09.762Z,1.6
2023-05-18T19:16:14.528Z,1.4
2023-05-18T19:19:16.490Z,1.7
2023-05-18T19:22:18.431Z,1.7
2023-05-18T19:25:20.389Z,1.6
2023-05-18T19:28:22.346Z,1.5
2023-05-18T19:31:24.330Z,1.7
2023-05-18T19:34:26.331Z,1.5
2023-05-18T19:37:28.253Z,1.5
2023-05-18T19:40:30.229Z,1.6
2023-05-18T19:43:32.190Z,1.5
2023-05-18T19:46:34.224Z,1.6
2023-05-18T19:49:36.103Z,1.7
2023-05-18T19:52:38.100Z,1.2
2023-05-18T19:55:40.113Z,1.4
2023-05-18T19:58:42.086Z,1.4
2023-05-18T20:01:44.059Z,2
2023-05-18T20:04:45.969Z,1.8
2023-05-18T20:07:47.957Z,1.7
2023-05-18T20:10:49.920Z,1.9
2023-05-18T20:13:51.859Z,1.5
2023-05-18T20:16:53.865Z,1.4
2023-05-18T20:19:55.789Z,1.6
2023-05-18T20:22:57.750Z,1.8
2023-05-18T20:25:59.723Z,1.8
2023-05-18T20:29:01.742Z,1.5
2023-05-18T20:32:03.716Z,1.7
2023-05-18T20:35:05.663Z,1.3
2023-05-18T20:38:07.702Z,1.7
2023-05-18T20:41:09.636Z,1.5
2023-05-18T20:44:11.653Z,1.5
2023-05-18T20:47:13.589Z,1.7
2023-05-18T20:50:15.520Z,1.6
2023-05-18T20:53:17.476Z,1.4
2023-05-18T20:56:19.447Z,1.8
2023-05-18T20:59:21.400Z,1.9
2023-05-18T21:02:23.453Z,1.9
2023-05-18T21:05:25.332Z,1.7
2023-05-18T21:08:27.294Z,1.6
2023-05-18T21:11:29.260Z,1.6
2023-05-18T21:14:31.334Z,1.8
2023-05-18T21:17:33.229Z,1.6
2023-05-18T21:20:35.171Z,1.4
2023-05-18T21:23:37.121Z,1.4
2023-05-18T21:26:39.069Z,1.6
2023-05-18T21:29:41.047Z,1.7
2023-05-18T21:32:43.065Z,1.6
2023-05-18T21:35:44.974Z,1.8
2023-05-18T21:38:46.926Z,1.5
2023-05-18T21:41:48.920Z,2.3
2023-05-18T21:44:50.876Z,2.1
2023-05-18T21:47:52.952Z,2.4
2023-05-18T21:50:54.811Z,2.1
2023-05-18T21:53:56.898Z,1.9
2023-05-18T21:56:58.828Z,1.9
2023-05-18T22:00:00.817Z,1.7
2023-05-18T22:03:02.821Z,2
2023-05-18T22:06:04.720Z,1.9
2023-05-18T22:09:07.037Z,2.1
2023-05-18T22:12:08.997Z,2.1
2023-05-18T22:15:11.035Z,2.1
2023-05-18T22:18:12.995Z,1.9
2023-05-18T22:21:14.902Z,2.1
2023-05-18T22:24:16.861Z,2.1
2023-05-18T22:27:18.844Z,1.8
2023-05-18T22:30:20.828Z,2
2023-05-18T22:33:22.830Z,2.3
2023-05-18T22:36:24.771Z,2.2
2023-05-18T22:39:26.701Z,1.7
2023-05-18T22:42:28.672Z,1.8
2023-05-18T22:45:30.643Z,2
2023-05-18T22:48:32.611Z,1.9
2023-05-18T22:51:34.562Z,2.2
2023-05-18T22:54:36.569Z,2
2023-05-18T22:57:38.534Z,2.1
2023-05-18T23:00:40.514Z,2.1
2023-05-18T23:03:42.462Z,2
2023-05-18T23:06:44.427Z,2.2
2023-05-18T23:09:46.390Z,1.7
2023-05-18T23:12:48.429Z,1.8
2023-05-18T23:15:50.358Z,1.9
2023-05-18T23:18:52.314Z,1.6
2023-05-18T23:21:54.282Z,1.9
2023-05-18T23:24:56.259Z,1.7
2023-05-18T23:27:58.214Z,1.7
2023-05-18T23:31:00.175Z,1.5
2023-05-18T23:34:02.118Z,1.9
2023-05-18T23:37:04.110Z,1.8
2023-05-18T23:40:06.093Z,1.7
2023-05-18T23:43:08.067Z,1.6
2023-05-18T23:46:10.159Z,1.8
2023-05-18T23:49:11.986Z,1.5
2023-05-18T23:52:14.003Z,1.7
2023-05-18T23:55:15.964Z,1.6
2023-05-18T23:58:17.915Z,1.9
